Terminal Aerodrome Forecast
Issued by NWS

Home | Current Version | Previous Version | Graphics & Text | Print | Product List | Glossary On
Versions: 1 2 3 4 5 6 7 8 9 10 11 12 13 14 15 16 17 18 19 20 21 22 23 24
000
FTUS43 KGRB 242300
TAFMTW
TAF
KMTW 242333Z 2500/2524 32009KT 3SM -RASN BR OVC005
      TEMPO 2500/2502 6SM BR OVC010
     FM250200 30010G17KT P6SM SCT012 OVC020
      TEMPO 2502/2506 6SM -SN BR OVC012
     FM250600 28009G16KT P6SM OVC018
     FM251500 24008KT P6SM OVC025
     FM252100 19006KT P6SM BKN030 OVC100=

USA.gov is the U.S. government's official web portal to all federal, state and local government web resources and services.